sensor_id;sensor_type;location;lat;lon;timestamp;pressure;altitude;pressure_sealevel;temperature;humidity
60099;BME280;62818;49.394;8.686;2022-11-21T00:00:08;99491.75;;;6.62;100.00
60099;BME280;62818;49.394;8.686;2022-11-21T00:01:20;99498.00;;;6.61;100.00
60099;BME280;62818;49.394;8.686;2022-11-21T00:02:27;99501.44;;;6.62;100.00
60099;BME280;62818;49.394;8.686;2022-11-21T00:03:27;99502.28;;;6.62;100.00
60099;BME280;62818;49.394;8.686;2022-11-21T00:04:28;99498.81;;;6.62;100.00
60099;BME280;62818;49.394;8.686;2022-11-21T00:05:31;99501.44;;;6.62;100.00
60099;BME280;62818;49.394;8.686;2022-11-21T00:06:34;99505.41;;;6.58;100.00
60099;BME280;62818;49.394;8.686;2022-11-21T00:07:37;99506.38;;;6.65;100.00
60099;BME280;62818;49.394;8.686;2022-11-21T00:08:37;99507.53;;;6.62;100.00
60099;BME280;62818;49.394;8.686;2022-11-21T00:09:38;99497.84;;;6.63;100.00
60099;BME280;62818;49.394;8.686;2022-11-21T00:10:39;99499.47;;;6.64;100.00
60099;BME280;62818;49.394;8.686;2022-11-21T00:11:45;99500.97;;;6.58;100.00
60099;BME280;62818;49.394;8.686;2022-11-21T00:12:48;99504.41;;;6.59;100.00
60099;BME280;62818;49.394;8.686;2022-11-21T00:13:55;99505.06;;;6.61;100.00
60099;BME280;62818;49.394;8.686;2022-11-21T00:14:55;99512.31;;;6.59;100.00
60099;BME280;62818;49.394;8.686;2022-11-21T00:15:55;99515.25;;;6.64;100.00
60099;BME280;62818;49.394;8.686;2022-11-21T00:17:04;99508.25;;;6.56;100.00
60099;BME280;62818;49.394;8.686;2022-11-21T00:18:07;99514.44;;;6.63;100.00
60099;BME280;62818;49.394;8.686;2022-11-21T00:19:10;99514.44;;;6.63;100.00
60099;BME280;62818;49.394;8.686;2022-11-21T00:20:13;99503.09;;;6.63;100.00
60099;BME280;62818;49.394;8.686;2022-11-21T00:21:19;99511.16;;;6.61;100.00
60099;BME280;62818;49.394;8.686;2022-11-21T00:22:22;99509.16;;;6.63;100.00
60099;BME280;62818;49.394;8.686;2022-11-21T00:23:22;99509.03;;;6.57;100.00
60099;BME280;62818;49.394;8.686;2022-11-21T00:24:27;99508.69;;;6.60;100.00
60099;BME280;62818;49.394;8.686;2022-11-21T00:25:27;99518.78;;;6.56;100.00
60099;BME280;62818;49.394;8.686;2022-11-21T00:26:33;99508.25;;;6.56;100.00
60099;BME280;62818;49.394;8.686;2022-11-21T00:27:33;99509.41;;;6.54;100.00
60099;BME280;62818;49.394;8.686;2022-11-21T00:28:37;99500.97;;;6.58;100.00
60099;BME280;62818;49.394;8.686;2022-11-21T00:29:40;99501.50;;;6.54;100.00
60099;BME280;62818;49.394;8.686;2022-11-21T00:30:45;99509.41;;;6.54;100.00
60099;BME280;62818;49.394;8.686;2022-11-21T00:31:48;99503.75;;;6.57;100.00
60099;BME280;62818;49.394;8.686;2022-11-21T00:32:56;99502.16;;;6.56;100.00
60099;BME280;62818;49.394;8.686;2022-11-21T00:33:57;99501.91;;;6.65;100.00
60099;BME280;62818;49.394;8.686;2022-11-21T00:35:03;99499.34;;;6.57;100.00
60099;BME280;62818;49.394;8.686;2022-11-21T00:36:06;99505.41;;;6.58;100.00
60099;BME280;62818;49.394;8.686;2022-11-21T00:37:09;99501.44;;;6.62;100.00
60099;BME280;62818;49.394;8.686;2022-11-21T00:38:12;99499.00;;;6.60;100.00
60099;BME280;62818;49.394;8.686;2022-11-21T00:39:18;99498.50;;;6.57;100.00
60099;BME280;62818;49.394;8.686;2022-11-21T00:40:21;99501.78;;;6.59;100.00
60099;BME280;62818;49.394;8.686;2022-11-21T00:41:22;99502.75;;;6.66;100.00
60099;BME280;62818;49.394;8.686;2022-11-21T00:42:25;99508.00;;;6.66;100.00
60099;BME280;62818;49.394;8.686;2022-11-21T00:43:26;99505.75;;;6.63;100.00
60099;BME280;62818;49.394;8.686;2022-11-21T00:44:26;99505.88;;;6.61;100.00
60099;BME280;62818;49.394;8.686;2022-11-21T00:45:32;99506.06;;;6.60;100.00
60099;BME280;62818;49.394;8.686;2022-11-21T00:46:33;99501.44;;;6.62;100.00
60099;BME280;62818;49.394;8.686;2022-11-21T00:47:36;99501.78;;;6.59;100.00
60099;BME280;62818;49.394;8.686;2022-11-21T00:48:41;99498.63;;;6.63;100.00
60099;BME280;62818;49.394;8.686;2022-11-21T00:49:41;99500.81;;;6.60;100.00
60099;BME280;62818;49.394;8.686;2022-11-21T00:50:42;99509.03;;;6.57;100.00
60099;BME280;62818;49.394;8.686;2022-11-21T00:51:43;99504.25;;;6.60;100.00
60099;BME280;62818;49.394;8.686;2022-11-21T00:52:43;99511.28;;;6.68;100.00
60099;BME280;62818;49.394;8.686;2022-11-21T00:53:43;99497.16;;;6.61;100.00
60099;BME280;62818;49.394;8.686;2022-11-21T00:54:48;99502.78;;;6.58;100.00
60099;BME280;62818;49.394;8.686;2022-11-21T00:55:51;99498.63;;;6.63;100.00
60099;BME280;62818;49.394;8.686;2022-11-21T00:56:52;99497.84;;;6.63;100.00
60099;BME280;62818;49.394;8.686;2022-11-21T00:57:52;99489.94;;;6.63;100.00
60099;BME280;62818;49.394;8.686;2022-11-21T00:58:53;99492.22;;;6.66;100.00
60099;BME280;62818;49.394;8.686;2022-11-21T00:59:53;99491.75;;;6.62;100.00
60099;BME280;62818;49.394;8.686;2022-11-21T01:01:08;99494.91;;;6.58;100.00
60099;BME280;62818;49.394;8.686;2022-11-21T01:02:13;99498.16;;;6.60;100.00
60099;BME280;62818;49.394;8.686;2022-11-21T01:03:13;99494.91;;;6.58;100.00
60099;BME280;62818;49.394;8.686;2022-11-21T01:04:14;99499.47;;;6.64;100.00
60099;BME280;62818;49.394;8.686;2022-11-21T01:05:17;99497.34;;;6.59;100.00
60099;BME280;62818;49.394;8.686;2022-11-21T01:06:20;99489.63;;;6.58;100.00
60099;BME280;62818;49.394;8.686;2022-11-21T01:07:22;99493.22;;;6.57;100.00
60099;BME280;62818;49.394;8.686;2022-11-21T01:08:25;99481.09;;;6.56;100.00
60099;BME280;62818;49.394;8.686;2022-11-21T01:09:31;99479.56;;;6.61;100.00
60099;BME280;62818;49.394;8.686;2022-11-21T01:10:36;99492.25;;;6.58;100.00
60099;BME280;62818;49.394;8.686;2022-11-21T01:11:37;99481.72;;;6.58;100.00
60099;BME280;62818;49.394;8.686;2022-11-21T01:12:39;99490.91;;;6.62;100.00
60099;BME280;62818;49.394;8.686;2022-11-21T01:13:41;99482.84;;;6.63;100.00
60099;BME280;62818;49.394;8.686;2022-11-21T01:14:46;99481.69;;;6.66;100.00
60099;BME280;62818;49.394;8.686;2022-11-21T01:15:52;99480.25;;;6.55;100.00
60099;BME280;62818;49.394;8.686;2022-11-21T01:16:57;99483.34;;;6.59;100.00
60099;BME280;62818;49.394;8.686;2022-11-21T01:17:59;99477.09;;;6.60;100.00
60099;BME280;62818;49.394;8.686;2022-11-21T01:19:04;99485.66;;;6.62;100.00
60099;BME280;62818;49.394;8.686;2022-11-21T01:20:08;99482.72;;;6.57;100.00
60099;BME280;62818;49.394;8.686;2022-11-21T01:21:30;99482.38;;;6.60;100.00
60099;BME280;62818;49.394;8.686;2022-11-21T01:22:31;99487.59;;;6.68;100.00
60099;BME280;62818;49.394;8.686;2022-11-21T01:23:32;99485.09;;;6.74;100.00
60099;BME280;62818;49.394;8.686;2022-11-21T01:24:32;99487.56;;;6.76;100.00
60099;BME280;62818;49.394;8.686;2022-11-21T01:25:34;99490.06;;;6.69;100.00
60099;BME280;62818;49.394;8.686;2022-11-21T01:26:37;99482.94;;;6.78;100.00
60099;BME280;62818;49.394;8.686;2022-11-21T01:27:37;99487.19;;;6.79;100.00
60099;BME280;62818;49.394;8.686;2022-11-21T01:28:43;99487.56;;;6.76;100.00
60099;BME280;62818;49.394;8.686;2022-11-21T01:29:44;99482.00;;;6.71;100.00
60099;BME280;62818;49.394;8.686;2022-11-21T01:30:44;99482.31;;;6.76;100.00
60099;BME280;62818;49.394;8.686;2022-11-21T01:31:45;99479.34;;;6.71;100.00
60099;BME280;62818;49.394;8.686;2022-11-21T01:32:47;99482.16;;;6.69;100.00
60099;BME280;62818;49.394;8.686;2022-11-21T01:33:54;99485.44;;;6.71;100.00
60099;BME280;62818;49.394;8.686;2022-11-21T01:34:56;99480.38;;;6.62;100.00
60099;BME280;62818;49.394;8.686;2022-11-21T01:36:05;99477.56;;;6.63;100.00
60099;BME280;62818;49.394;8.686;2022-11-21T01:37:15;99485.78;;;6.68;100.00
60099;BME280;62818;49.394;8.686;2022-11-21T01:38:18;99478.72;;;6.69;100.00
60099;BME280;62818;49.394;8.686;2022-11-21T01:39:18;99474.09;;;6.71;100.00
60099;BME280;62818;49.394;8.686;2022-11-21T01:40:19;99471.84;;;6.60;100.00
60099;BME280;62818;49.394;8.686;2022-11-21T01:41:30;99471.19;;;6.58;100.00
60099;BME280;62818;49.394;8.686;2022-11-21T01:42:56;99480.06;;;6.57;100.00
60099;BME280;62818;49.394;8.686;2022-11-21T01:44:19;99464.59;;;6.62;100.00
60099;BME280;62818;49.394;8.686;2022-11-21T01:46:54;99462.59;;;6.64;100.00
60099;BME280;62818;49.394;8.686;2022-11-21T01:47:55;99457.34;;;6.64;100.00
60099;BME280;62818;49.394;8.686;2022-11-21T01:49:03;99459.97;;;6.64;100.00
60099;BME280;62818;49.394;8.686;2022-11-21T01:50:08;99459.50;;;6.60;100.00
60099;BME280;62818;49.394;8.686;2022-11-21T01:51:47;99452.06;;;6.64;100.00
60099;BME280;62818;49.394;8.686;2022-11-21T01:52:54;99466.25;;;6.63;100.00
60099;BME280;62818;49.394;8.686;2022-11-21T01:55:10;99452.19;;;6.70;100.00
60099;BME280;62818;49.394;8.686;2022-11-21T01:56:11;99445.31;;;6.69;100.00
60099;BME280;62818;49.394;8.686;2022-11-21T01:57:27;99447.81;;;6.63;100.00
60099;BME280;62818;49.394;8.686;2022-11-21T01:58:38;99468.56;;;6.58;100.00
60099;BME280;62818;49.394;8.686;2022-11-21T01:59:48;99466.06;;;6.64;100.00
60099;BME280;62818;49.394;8.686;2022-11-21T02:00:55;99455.00;;;6.69;100.00
60099;BME280;62818;49.394;8.686;2022-11-21T02:01:57;99451.38;;;6.70;100.00
60099;BME280;62818;49.394;8.686;2022-11-21T02:03:06;99451.38;;;6.70;100.00
60099;BME280;62818;49.394;8.686;2022-11-21T02:04:14;99450.44;;;6.63;100.00
60099;BME280;62818;49.394;8.686;2022-11-21T02:05:23;99455.03;;;6.61;100.00
60099;BME280;62818;49.394;8.686;2022-11-21T02:06:27;99455.03;;;6.61;100.00
60099;BME280;62818;49.394;8.686;2022-11-21T02:07:33;99467.22;;;6.62;100.00
60099;BME280;62818;49.394;8.686;2022-11-21T02:08:39;99464.59;;;6.62;100.00
60099;BME280;62818;49.394;8.686;2022-11-21T02:09:44;99458.22;;;6.56;100.00
60099;BME280;62818;49.394;8.686;2022-11-21T02:11:28;99454.06;;;6.62;100.00
60099;BME280;62818;49.394;8.686;2022-11-21T02:12:44;99453.34;;;6.68;100.00
60099;BME280;62818;49.394;8.686;2022-11-21T02:13:48;99456.63;;;6.70;100.00
60099;BME280;62818;49.394;8.686;2022-11-21T02:14:50;99452.31;;;6.77;100.00
60099;BME280;62818;49.394;8.686;2022-11-21T02:15:58;99451.72;;;6.67;100.00
60099;BME280;62818;49.394;8.686;2022-11-21T02:17:02;99460.28;;;6.69;100.00
60099;BME280;62818;49.394;8.686;2022-11-21T02:18:08;99453.84;;;6.71;100.00
60099;BME280;62818;49.394;8.686;2022-11-21T02:19:55;99450.09;;;6.66;100.00
60099;BME280;62818;49.394;8.686;2022-11-21T02:21:12;99448.47;;;6.65;100.00
60099;BME280;62818;49.394;8.686;2022-11-21T02:23:14;99459.66;;;6.59;100.00
60099;BME280;62818;49.394;8.686;2022-11-21T02:25:00;99450.44;;;6.63;100.00
60099;BME280;62818;49.394;8.686;2022-11-21T02:26:01;99460.03;;;6.56;100.00
60099;BME280;62818;49.394;8.686;2022-11-21T02:27:06;99448.84;;;6.54;100.00
60099;BME280;62818;49.394;8.686;2022-11-21T02:28:14;99455.59;;;6.56;100.00
60099;BME280;62818;49.394;8.686;2022-11-21T02:29:18;99450.13;;;6.58;100.00
60099;BME280;62818;49.394;8.686;2022-11-21T02:30:23;99453.94;;;6.55;100.00
60099;BME280;62818;49.394;8.686;2022-11-21T02:31:31;99434.16;;;6.59;100.00
60099;BME280;62818;49.394;8.686;2022-11-21T02:32:39;99448.47;;;6.65;100.00
60099;BME280;62818;49.394;8.686;2022-11-21T02:33:44;99443.84;;;6.59;100.00
60099;BME280;62818;49.394;8.686;2022-11-21T02:34:47;99447.19;;;6.53;100.00
60099;BME280;62818;49.394;8.686;2022-11-21T02:36:34;99445.19;;;6.63;100.00
60099;BME280;62818;49.394;8.686;2022-11-21T02:37:40;99444.81;;;6.66;100.00
60099;BME280;62818;49.394;8.686;2022-11-21T02:38:44;99440.72;;;6.63;100.00
60099;BME280;62818;49.394;8.686;2022-11-21T02:39:45;99436.72;;;6.67;100.00
60099;BME280;62818;49.394;8.686;2022-11-21T02:41:17;99436.28;;;6.64;100.00
60099;BME280;62818;49.394;8.686;2022-11-21T02:42:33;99438.25;;;6.62;100.00
60099;BME280;62818;49.394;8.686;2022-11-21T02:43:46;99429.38;;;6.63;100.00
60099;BME280;62818;49.394;8.686;2022-11-21T02:45:14;99433.00;;;6.62;100.00
60099;BME280;62818;49.394;8.686;2022-11-21T02:46:22;99432.53;;;6.58;100.00
60099;BME280;62818;49.394;8.686;2022-11-21T02:47:26;99428.06;;;6.59;100.00
60099;BME280;62818;49.394;8.686;2022-11-21T02:48:32;99433.00;;;6.62;100.00
60099;BME280;62818;49.394;8.686;2022-11-21T02:50:02;99436.44;;;6.62;100.00
60099;BME280;62818;49.394;8.686;2022-11-21T02:51:11;99441.34;;;6.65;100.00
60099;BME280;62818;49.394;8.686;2022-11-21T02:52:12;99439.91;;;6.63;100.00
60099;BME280;62818;49.394;8.686;2022-11-21T02:53:17;99442.81;;;6.68;100.00
60099;BME280;62818;49.394;8.686;2022-11-21T02:54:18;99445.19;;;6.63;100.00
60099;BME280;62818;49.394;8.686;2022-11-21T02:55:18;99442.19;;;6.66;100.00
60099;BME280;62818;49.394;8.686;2022-11-21T02:56:22;99437.94;;;6.57;100.00
60099;BME280;62818;49.394;8.686;2022-11-21T02:57:27;99448.19;;;6.52;100.00
60099;BME280;62818;49.394;8.686;2022-11-21T02:58:30;99443.56;;;6.54;100.00
60099;BME280;62818;49.394;8.686;2022-11-21T02:59:33;99443.25;;;6.49;100.00
60099;BME280;62818;49.394;8.686;2022-11-21T03:00:37;99435.31;;;6.57;100.00
60099;BME280;62818;49.394;8.686;2022-11-21T03:01:41;99434.84;;;6.53;100.00
60099;BME280;62818;49.394;8.686;2022-11-21T03:02:44;99430.41;;;6.54;100.00
60099;BME280;62818;49.394;8.686;2022-11-21T03:03:45;99425.81;;;6.48;100.00
60099;BME280;62818;49.394;8.686;2022-11-21T03:04:45;99432.41;;;6.52;100.00
60099;BME280;62818;49.394;8.686;2022-11-21T03:05:48;99429.41;;;6.55;100.00
60099;BME280;62818;49.394;8.686;2022-11-21T03:06:49;99427.13;;;6.52;100.00
60099;BME280;62818;49.394;8.686;2022-11-21T03:07:49;99430.69;;;6.59;100.00
60099;BME280;62818;49.394;8.686;2022-11-21T03:08:50;99424.19;;;6.47;100.00
60099;BME280;62818;49.394;8.686;2022-11-21T03:09:53;99430.41;;;6.54;100.00
60099;BME280;62818;49.394;8.686;2022-11-21T03:10:55;99424.97;;;6.55;100.00
60099;BME280;62818;49.394;8.686;2022-11-21T03:12:01;99425.16;;;6.54;100.00
60099;BME280;62818;49.394;8.686;2022-11-21T03:13:07;99420.22;;;6.51;100.00
60099;BME280;62818;49.394;8.686;2022-11-21T03:14:10;99418.94;;;6.47;100.00
60099;BME280;62818;49.394;8.686;2022-11-21T03:15:13;99420.56;;;6.48;100.00
60099;BME280;62818;49.394;8.686;2022-11-21T03:16:14;99417.59;;;6.51;100.00
60099;BME280;62818;49.394;8.686;2022-11-21T03:17:17;99424.84;;;6.49;100.00
60099;BME280;62818;49.394;8.686;2022-11-21T03:18:20;99414.19;;;6.42;100.00
60099;BME280;62818;49.394;8.686;2022-11-21T03:19:22;99415.28;;;6.48;100.00
60099;BME280;62818;49.394;8.686;2022-11-21T03:20:23;99418.56;;;6.50;100.00
60099;BME280;62818;49.394;8.686;2022-11-21T03:21:26;99412.19;;;6.44;100.00
60099;BME280;62818;49.394;8.686;2022-11-21T03:22:27;99409.88;;;6.49;100.00
60099;BME280;62818;49.394;8.686;2022-11-21T03:23:27;99410.66;;;6.50;100.00
60099;BME280;62818;49.394;8.686;2022-11-21T03:24:30;99417.63;;;6.43;100.00
60099;BME280;62818;49.394;8.686;2022-11-21T03:25:30;99409.38;;;6.46;100.00
60099;BME280;62818;49.394;8.686;2022-11-21T03:26:33;99415.94;;;6.50;100.00
60099;BME280;62818;49.394;8.686;2022-11-21T03:27:34;99417.91;;;6.48;100.00
60099;BME280;62818;49.394;8.686;2022-11-21T03:28:37;99420.91;;;6.45;100.00
60099;BME280;62818;49.394;8.686;2022-11-21T03:29:37;99410.66;;;6.50;100.00
60099;BME280;62818;49.394;8.686;2022-11-21T03:30:40;99413.66;;;6.47;100.00
60099;BME280;62818;49.394;8.686;2022-11-21T03:31:43;99416.94;;;6.49;100.00
60099;BME280;62818;49.394;8.686;2022-11-21T03:32:43;99418.09;;;6.46;100.00
60099;BME280;62818;49.394;8.686;2022-11-21T03:33:46;99418.94;;;6.47;100.00
60099;BME280;62818;49.394;8.686;2022-11-21T03:34:49;99416.13;;;6.48;100.00
60099;BME280;62818;49.394;8.686;2022-11-21T03:35:55;99423.03;;;6.49;100.00
60099;BME280;62818;49.394;8.686;2022-11-21T03:36:57;99420.72;;;6.46;100.00
60099;BME280;62818;49.394;8.686;2022-11-21T03:38:00;99416.75;;;6.50;100.00
60099;BME280;62818;49.394;8.686;2022-11-21T03:39:03;99422.22;;;6.49;100.00
60099;BME280;62818;49.394;8.686;2022-11-21T03:40:05;99424.78;;;6.57;100.00
60099;BME280;62818;49.394;8.686;2022-11-21T03:41:09;99420.69;;;6.54;100.00
60099;BME280;62818;49.394;8.686;2022-11-21T03:42:30;99420.41;;;6.49;100.00
60099;BME280;62818;49.394;8.686;2022-11-21T03:43:31;99421.88;;;6.52;100.00
60099;BME280;62818;49.394;8.686;2022-11-21T03:44:36;99415.94;;;6.50;100.00
60099;BME280;62818;49.394;8.686;2022-11-21T03:45:36;99423.38;;;6.46;100.00
60099;BME280;62818;49.394;8.686;2022-11-21T03:46:39;99423.19;;;6.48;100.00
60099;BME280;62818;49.394;8.686;2022-11-21T03:47:42;99426.47;;;6.50;100.00
60099;BME280;62818;49.394;8.686;2022-11-21T03:48:43;99425.03;;;6.47;100.00
60099;BME280;62818;49.394;8.686;2022-11-21T03:49:48;99426.66;;;6.48;100.00
60099;BME280;62818;49.394;8.686;2022-11-21T03:50:51;99426.66;;;6.48;100.00
60099;BME280;62818;49.394;8.686;2022-11-21T03:51:53;99421.56;;;6.47;100.00
60099;BME280;62818;49.394;8.686;2022-11-21T03:52:56;99426.88;;;6.39;100.00
60099;BME280;62818;49.394;8.686;2022-11-21T03:53:59;99420.28;;;6.35;100.00
60099;BME280;62818;49.394;8.686;2022-11-21T03:55:00;99414.38;;;6.41;100.00
60099;BME280;62818;49.394;8.686;2022-11-21T03:56:06;99413.84;;;6.45;100.00
60099;BME280;62818;49.394;8.686;2022-11-21T03:57:09;99422.41;;;6.39;100.00
60099;BME280;62818;49.394;8.686;2022-11-21T03:58:10;99414.38;;;6.41;100.00
60099;BME280;62818;49.394;8.686;2022-11-21T03:59:12;99416.81;;;6.42;100.00
60099;BME280;62818;49.394;8.686;2022-11-21T04:00:18;99411.09;;;6.39;100.00
60099;BME280;62818;49.394;8.686;2022-11-21T04:01:19;99420.41;;;6.41;100.00
60099;BME280;62818;49.394;8.686;2022-11-21T04:02:20;99417.97;;;6.40;100.00
60099;BME280;62818;49.394;8.686;2022-11-21T04:03:22;99425.34;;;6.44;100.00
60099;BME280;62818;49.394;8.686;2022-11-21T04:04:23;99420.94;;;6.37;100.00
60099;BME280;62818;49.394;8.686;2022-11-21T04:05:23;99415.16;;;6.41;100.00
60099;BME280;62818;49.394;8.686;2022-11-21T04:06:28;99429.16;;;6.42;100.00
60099;BME280;62818;49.394;8.686;2022-11-21T04:07:31;99423.22;;;6.40;100.00
60099;BME280;62818;49.394;8.686;2022-11-21T04:08:32;99427.84;;;6.38;100.00
60099;BME280;62818;49.394;8.686;2022-11-21T04:09:37;99421.94;;;6.36;100.00
60099;BME280;62818;49.394;8.686;2022-11-21T04:10:39;99433.75;;;6.40;100.00
60099;BME280;62818;49.394;8.686;2022-11-21T04:11:51;99423.69;;;6.51;100.00
60099;BME280;62818;49.394;8.686;2022-11-21T04:12:53;99421.03;;;6.51;100.00
60099;BME280;62818;49.394;8.686;2022-11-21T04:13:59;99426.06;;;6.38;100.00
60099;BME280;62818;49.394;8.686;2022-11-21T04:15:02;99423.38;;;6.46;100.00
60099;BME280;62818;49.394;8.686;2022-11-21T04:16:03;99424.19;;;6.47;100.00
60099;BME280;62818;49.394;8.686;2022-11-21T04:17:06;99426.31;;;6.51;100.00
60099;BME280;62818;49.394;8.686;2022-11-21T04:18:07;99425.81;;;6.48;100.00
60099;BME280;62818;49.394;8.686;2022-11-21T04:19:08;99423.50;;;6.53;100.00
60099;BME280;62818;49.394;8.686;2022-11-21T04:20:11;99428.03;;;6.36;100.00
60099;BME280;62818;49.394;8.686;2022-11-21T04:21:12;99421.94;;;6.36;100.00
60099;BME280;62818;49.394;8.686;2022-11-21T04:22:14;99414.66;;;6.46;100.00
60099;BME280;62818;49.394;8.686;2022-11-21T04:23:15;99414.69;;;6.38;100.00
60099;BME280;62818;49.394;8.686;2022-11-21T04:24:17;99414.00;;;6.44;100.00
60099;BME280;62818;49.394;8.686;2022-11-21T04:25:18;99411.41;;;6.36;100.00
60099;BME280;62818;49.394;8.686;2022-11-21T04:26:21;99417.50;;;6.36;100.00
60099;BME280;62818;49.394;8.686;2022-11-21T04:27:21;99411.84;;;6.47;100.00
60099;BME280;62818;49.394;8.686;2022-11-21T04:28:22;99406.81;;;6.38;100.00
60099;BME280;62818;49.394;8.686;2022-11-21T04:29:22;99417.97;;;6.40;100.00
60099;BME280;62818;49.394;8.686;2022-11-21T04:30:26;99414.19;;;6.42;100.00
60099;BME280;62818;49.394;8.686;2022-11-21T04:31:26;99411.09;;;6.31;100.00
60099;BME280;62818;49.394;8.686;2022-11-21T04:32:34;99408.84;;;6.28;100.00
60099;BME280;62818;49.394;8.686;2022-11-21T04:33:39;99418.53;;;6.27;100.00
60099;BME280;62818;49.394;8.686;2022-11-21T04:34:40;99420.00;;;6.30;100.00
60099;BME280;62818;49.394;8.686;2022-11-21T04:35:44;99410.00;;;6.25;100.00
60099;BME280;62818;49.394;8.686;2022-11-21T04:36:48;99415.59;;;6.22;100.00
60099;BME280;62818;49.394;8.686;2022-11-21T04:37:49;99418.03;;;6.24;100.00
60099;BME280;62818;49.394;8.686;2022-11-21T04:38:50;99420.66;;;6.32;100.00
60099;BME280;62818;49.394;8.686;2022-11-21T04:39:50;99418.88;;;6.24;100.00
60099;BME280;62818;49.394;8.686;2022-11-21T04:40:51;99424.63;;;6.20;100.00
60099;BME280;62818;49.394;8.686;2022-11-21T04:41:51;99418.34;;;6.29;100.00
60099;BME280;62818;49.394;8.686;2022-11-21T04:42:52;99417.00;;;6.33;100.00
60099;BME280;62818;49.394;8.686;2022-11-21T04:43:52;99424.25;;;6.31;100.00
60099;BME280;62818;49.394;8.686;2022-11-21T04:44:52;99419.31;;;6.36;100.00
60099;BME280;62818;49.394;8.686;2022-11-21T04:45:53;99423.28;;;6.32;100.00
60099;BME280;62818;49.394;8.686;2022-11-21T04:46:58;99416.41;;;6.23;100.00
60099;BME280;62818;49.394;8.686;2022-11-21T04:47:59;99422.00;;;6.28;100.00
60099;BME280;62818;49.394;8.686;2022-11-21T04:49:02;99424.75;;;6.34;100.00
60099;BME280;62818;49.394;8.686;2022-11-21T04:50:03;99425.22;;;6.38;100.00
60099;BME280;62818;49.394;8.686;2022-11-21T04:51:06;99418.88;;;6.55;100.00
60099;BME280;62818;49.394;8.686;2022-11-21T04:52:09;99412.66;;;6.48;100.00
60099;BME280;62818;49.394;8.686;2022-11-21T04:53:12;99411.53;;;6.42;100.00
60099;BME280;62818;49.394;8.686;2022-11-21T04:54:12;99423.38;;;6.46;100.00
60099;BME280;62818;49.394;8.686;2022-11-21T04:55:13;99414.97;;;6.51;100.00
60099;BME280;62818;49.394;8.686;2022-11-21T04:56:16;99416.63;;;6.44;100.00
60099;BME280;62818;49.394;8.686;2022-11-21T04:57:18;99412.66;;;6.48;100.00
60099;BME280;62818;49.394;8.686;2022-11-21T04:58:24;99414.19;;;6.42;100.00
60099;BME280;62818;49.394;8.686;2022-11-21T04:59:24;99411.28;;;6.29;100.00
60099;BME280;62818;49.394;8.686;2022-11-21T05:00:27;99412.41;;;6.35;100.00
60099;BME280;62818;49.394;8.686;2022-11-21T05:01:28;99408.47;;;6.31;100.00
60099;BME280;62818;49.394;8.686;2022-11-21T05:02:31;99404.50;;;6.35;100.00
60099;BME280;62818;49.394;8.686;2022-11-21T05:03:31;99417.72;;;6.27;100.00
60099;BME280;62818;49.394;8.686;2022-11-21T05:04:37;99407.81;;;6.29;100.00
60099;BME280;62818;49.394;8.686;2022-11-21T05:05:38;99414.38;;;6.33;100.00
60099;BME280;62818;49.394;8.686;2022-11-21T05:06:41;99413.53;;;6.40;100.00
60099;BME280;62818;49.394;8.686;2022-11-21T05:07:44;99413.03;;;6.37;100.00
60099;BME280;62818;49.394;8.686;2022-11-21T05:08:44;99413.66;;;6.47;100.00
60099;BME280;62818;49.394;8.686;2022-11-21T05:09:47;99416.44;;;6.53;100.00
60099;BME280;62818;49.394;8.686;2022-11-21T05:10:52;99418.09;;;6.46;100.00
60099;BME280;62818;49.394;8.686;2022-11-21T05:12:14;99413.53;;;6.40;100.00
60099;BME280;62818;49.394;8.686;2022-11-21T05:13:33;99419.31;;;6.36;100.00
60099;BME280;62818;49.394;8.686;2022-11-21T05:14:33;99420.59;;;6.40;100.00
60099;BME280;62818;49.394;8.686;2022-11-21T05:15:36;99411.84;;;6.47;100.00
60099;BME280;62818;49.394;8.686;2022-11-21T05:16:40;99419.81;;;6.31;100.00
60099;BME280;62818;49.394;8.686;2022-11-21T05:17:42;99413.03;;;6.37;100.00
60099;BME280;62818;49.394;8.686;2022-11-21T05:18:45;99423.44;;;6.30;100.00
60099;BME280;62818;49.394;8.686;2022-11-21T05:19:48;99418.31;;;6.37;100.00
60099;BME280;62818;49.394;8.686;2022-11-21T05:20:53;99417.63;;;6.43;100.00
60099;BME280;62818;49.394;8.686;2022-11-21T05:21:53;99420.28;;;6.35;100.00
60099;BME280;62818;49.394;8.686;2022-11-21T05:22:54;99423.88;;;6.42;100.00
60099;BME280;62818;49.394;8.686;2022-11-21T05:23:55;99425.53;;;6.43;100.00
60099;BME280;62818;49.394;8.686;2022-11-21T05:24:55;99424.19;;;6.47;100.00
60099;BME280;62818;49.394;8.686;2022-11-21T05:26:03;99426.88;;;6.39;100.00
60099;BME280;62818;49.394;8.686;2022-11-21T05:27:04;99431.66;;;6.35;100.00
60099;BME280;62818;49.394;8.686;2022-11-21T05:28:04;99429.84;;;6.36;100.00
60099;BME280;62818;49.394;8.686;2022-11-21T05:29:09;99421.44;;;6.32;100.00
60099;BME280;62818;49.394;8.686;2022-11-21T05:30:12;99423.94;;;6.34;100.00
60099;BME280;62818;49.394;8.686;2022-11-21T05:31:15;99422.25;;;6.41;100.00
60099;BME280;62818;49.394;8.686;2022-11-21T05:32:18;99425.56;;;6.35;100.00
60099;BME280;62818;49.394;8.686;2022-11-21T05:33:20;99417.38;;;6.30;100.00
60099;BME280;62818;49.394;8.686;2022-11-21T05:34:21;99413.53;;;6.40;100.00
60099;BME280;62818;49.394;8.686;2022-11-21T05:35:22;99411.09;;;6.39;100.00
60099;BME280;62818;49.394;8.686;2022-11-21T05:36:23;99419.00;;;6.31;100.00
60099;BME280;62818;49.394;8.686;2022-11-21T05:37:26;99416.69;;;6.36;100.00
60099;BME280;62818;49.394;8.686;2022-11-21T05:38:26;99418.66;;;6.34;100.00
60099;BME280;62818;49.394;8.686;2022-11-21T05:39:31;99417.66;;;6.35;100.00
60099;BME280;62818;49.394;8.686;2022-11-21T05:40:34;99416.19;;;6.32;100.00
60099;BME280;62818;49.394;8.686;2022-11-21T05:41:37;99420.66;;;6.32;100.00
60099;BME280;62818;49.394;8.686;2022-11-21T05:42:39;99426.19;;;6.37;100.00
60099;BME280;62818;49.394;8.686;2022-11-21T05:43:59;99422.53;;;6.46;100.00
60099;BME280;62818;49.394;8.686;2022-11-21T05:45:05;99427.84;;;6.38;100.00